Time;durP1;ratioP1;P1;durP2;ratioP2;P2;SDS_P1;SDS_P2;PMS_P1;PMS_P2;Temp;Humidity;BMP_temperature;BMP_pressure;BME280_temperature;BME280_humidity;BME280_pressure;Samples;Min_cycle;Max_cycle;Signal;HPM_P1;HPM_P2
2022/04/18 00:00:59;;;;;;;2.58;1.40;;;;;;;27.00;31.30;101746.97;4957659;29;20039;-47
2022/04/18 00:03:27;;;;;;;3.22;1.10;;;;;;;26.98;31.35;101751.31;4957525;29;20110;-48
2022/04/18 00:05:55;;;;;;;2.47;1.00;;;;;;;26.96;31.31;101755.72;4956630;29;20464;-46
2022/04/18 00:08:24;;;;;;;1.27;0.90;;;;;;;26.95;31.30;101756.56;4957813;29;20028;-52
2022/04/18 00:10:52;;;;;;;1.88;1.20;;;;;;;26.90;31.39;101748.59;4940563;29;20487;-50
2022/04/18 00:13:21;;;;;;;2.63;1.08;;;;;;;26.88;31.58;101744.19;4957303;29;20035;-53
2022/04/18 00:15:50;;;;;;;1.95;1.00;;;;;;;26.89;31.22;101748.59;4957563;29;20105;-49
2022/04/18 00:18:18;;;;;;;1.73;1.10;;;;;;;26.87;31.22;101742.41;4957662;29;20429;-50
2022/04/18 00:20:47;;;;;;;2.10;1.00;;;;;;;26.86;31.43;101751.16;4957069;29;20477;-49
2022/04/18 00:23:16;;;;;;;1.92;1.25;;;;;;;26.91;30.98;101738.97;4957151;29;20389;-50
2022/04/18 00:25:43;;;;;;;1.30;0.80;;;;;;;26.88;31.18;101744.19;4939969;29;20042;-48
2022/04/18 00:28:12;;;;;;;1.35;1.00;;;;;;;26.84;31.37;101746.75;4957533;29;20098;-46
2022/04/18 00:30:41;;;;;;;1.42;0.85;;;;;;;26.83;31.18;101738.88;4957373;29;20119;-50
2022/04/18 00:33:09;;;;;;;4.15;1.30;;;;;;;26.83;31.24;101731.84;4957280;29;20031;-50
2022/04/18 00:35:38;;;;;;;2.95;1.17;;;;;;;26.79;31.25;101735.31;4957178;29;20062;-48
2022/04/18 00:38:07;;;;;;;2.28;0.95;;;;;;;26.75;31.31;101730.84;4957120;29;20054;-49
2022/04/18 00:40:35;;;;;;;1.58;1.08;;;;;;;26.78;31.14;101737.88;4957119;29;20034;-52
2022/04/18 00:43:06;;;;;;;1.10;0.98;;;;;;;26.75;31.10;101728.19;4956519;29;20109;-48
2022/04/18 00:45:34;;;;;;;1.83;0.93;;;;;;;26.74;31.15;101734.31;4957207;29;20035;-50
2022/04/18 00:48:04;;;;;;;1.73;1.08;;;;;;;26.72;31.22;101732.56;4956715;29;20336;-48
2022/04/18 00:50:34;;;;;;;2.25;1.35;;;;;;;26.77;31.19;101737.00;4956644;29;20544;-48
2022/04/18 00:53:04;;;;;;;1.23;0.77;;;;;;;26.75;31.15;101733.47;4956312;29;20089;-52
2022/04/18 00:55:35;;;;;;;1.73;0.90;;;;;;;26.71;31.19;101736.03;4956264;29;20386;-50
2022/04/18 00:58:04;;;;;;;1.90;1.10;;;;;;;26.70;31.09;101732.50;4956653;29;20035;-53
2022/04/18 01:00:32;;;;;;;1.45;1.10;;;;;;;26.70;30.90;101724.63;4939864;29;20031;-49
2022/04/18 01:03:01;;;;;;;1.52;0.77;;;;;;;26.70;30.99;101732.50;4956878;29;20385;-48
2022/04/18 01:05:29;;;;;;;2.58;1.10;;;;;;;26.66;30.79;101725.44;4956565;29;20034;-53
2022/04/18 01:07:59;;;;;;;1.92;0.82;;;;;;;26.67;31.27;101729.84;4956463;29;20019;-50
2022/04/18 01:10:27;;;;;;;1.08;0.68;;;;;;;26.63;30.83;101728.03;4955979;28;20351;-50
2022/04/18 01:12:55;;;;;;;1.55;1.00;;;;;;;26.65;30.92;101726.28;4956150;29;20037;-48
2022/04/18 01:15:24;;;;;;;1.52;0.95;;;;;;;26.62;31.03;101727.13;4956270;29;20035;-52
2022/04/18 01:17:52;;;;;;;0.82;0.70;;;;;;;26.64;31.13;101724.56;4956443;29;20030;-51
2022/04/18 01:20:21;;;;;;;1.90;1.10;;;;;;;26.62;31.24;101721.88;4956543;29;20023;-54
2022/04/18 01:22:53;;;;;;;3.42;0.98;;;;;;;26.63;30.99;101728.03;4956119;29;20031;-51
2022/04/18 01:31:01;;;;;;;1.20;0.82;;;;;;;26.55;31.03;101712.16;4949506;29;20438;-54
2022/04/18 01:33:29;;;;;;;1.25;0.85;;;;;;;26.49;30.97;101699.75;4955694;29;20548;-48
2022/04/18 01:35:58;;;;;;;1.42;0.90;;;;;;;26.51;31.17;101705.06;4955866;29;20054;-52
2022/04/18 01:38:26;;;;;;;2.63;1.20;;;;;;;26.52;31.01;101705.06;4955950;29;20107;-49
2022/04/18 01:40:54;;;;;;;1.10;0.60;;;;;;;26.54;30.88;101708.63;4955944;29;20131;-50
2022/04/18 01:43:23;;;;;;;1.40;0.70;;;;;;;26.53;30.82;101704.22;4955472;29;20058;-47
2022/04/18 01:45:51;;;;;;;1.52;0.90;;;;;;;26.50;31.08;101698.03;4955833;29;20035;-51
2022/04/18 01:48:20;;;;;;;1.20;0.80;;;;;;;26.49;30.57;101699.75;4955383;29;20031;-47
2022/04/18 01:50:48;;;;;;;0.85;0.70;;;;;;;26.45;30.95;101704.97;4956304;29;20078;-49
2022/04/18 01:53:17;;;;;;;1.50;0.93;;;;;;;26.51;30.76;101700.69;4955437;29;20062;-50
2022/04/18 01:55:45;;;;;;;1.67;0.70;;;;;;;26.47;30.88;101706.78;4955403;29;20046;-48
2022/04/18 01:58:14;;;;;;;1.15;0.70;;;;;;;26.50;30.76;101704.16;4956172;29;20031;-49
2022/04/18 02:00:42;;;;;;;2.22;0.88;;;;;;;26.44;30.65;101695.31;4955934;29;20118;-51
2022/04/18 02:03:10;;;;;;;1.58;0.70;;;;;;;26.50;30.53;101700.66;4955495;29;20031;-52
2022/04/18 02:05:42;;;;;;;3.22;0.75;;;;;;;26.45;30.73;101703.25;4955439;29;20422;-49
2022/04/18 02:08:11;;;;;;;0.65;0.50;;;;;;;26.44;30.77;101700.56;4955505;29;20038;-47
2022/04/18 02:10:40;;;;;;;1.17;0.60;;;;;;;26.40;30.56;101694.38;4955027;29;20455;-49
2022/04/18 02:13:09;;;;;;;3.17;1.02;;;;;;;26.38;30.51;101698.75;4955274;29;20039;-51
2022/04/18 02:15:37;;;;;;;1.15;0.88;;;;;;;26.37;30.59;101687.34;4937717;29;20091;-48
2022/04/18 02:18:06;;;;;;;1.58;0.65;;;;;;;26.43;30.77;101691.81;4955298;29;20082;-51
2022/04/18 02:20:34;;;;;;;1.08;0.60;;;;;;;26.42;30.68;101697.03;4955364;28;20106;-50
2022/04/18 02:23:03;;;;;;;0.70;0.70;;;;;;;26.37;30.36;101695.25;4954767;29;20115;-47
2022/04/18 02:25:32;;;;;;;1.33;0.68;;;;;;;26.38;30.67;101696.09;4955025;29;20035;-49
2022/04/18 02:28:00;;;;;;;1.50;1.05;;;;;;;26.36;30.52;101692.56;4955565;29;20131;-50
2022/04/18 02:30:29;;;;;;;1.95;0.70;;;;;;;26.39;30.70;101690.84;4955449;29;20023;-47
2022/04/18 02:32:58;;;;;;;1.83;0.80;;;;;;;26.41;30.34;101684.72;4955252;29;20027;-48
2022/04/18 02:35:27;;;;;;;0.73;0.50;;;;;;;26.35;30.30;101678.53;4954992;29;20035;-51
2022/04/18 02:37:56;;;;;;;1.17;0.88;;;;;;;26.35;30.46;101677.66;4937959;29;20061;-50
2022/04/18 02:40:24;;;;;;;1.50;0.73;;;;;;;26.36;30.30;101685.56;4955365;29;20429;-48
2022/04/18 02:42:52;;;;;;;0.88;0.55;;;;;;;26.30;30.58;101677.59;4955110;29;20135;-49
2022/04/18 02:45:21;;;;;;;0.93;0.60;;;;;;;26.27;30.53;101681.94;4954747;29;20030;-53
2022/04/18 02:47:50;;;;;;;1.40;0.60;;;;;;;26.31;30.48;101678.50;4954591;29;20031;-50
2022/04/18 02:50:19;;;;;;;1.75;0.63;;;;;;;26.27;30.36;101682.78;4954484;29;20031;-53
2022/04/18 02:52:47;;;;;;;0.60;0.52;;;;;;;26.27;30.49;101688.06;4954811;29;20024;-51
2022/04/18 02:55:16;;;;;;;1.17;0.55;;;;;;;26.27;30.29;101680.16;4954912;29;20473;-52
2022/04/18 02:57:44;;;;;;;1.45;0.70;;;;;;;26.28;30.15;101689.81;4954614;29;20126;-50
2022/04/18 03:00:13;;;;;;;0.82;0.68;;;;;;;26.23;30.39;101681.88;4955231;29;20023;-54
2022/04/18 03:02:42;;;;;;;0.80;0.55;;;;;;;26.20;30.38;101680.97;4954827;29;20078;-52
2022/04/18 03:05:12;;;;;;;2.75;1.02;;;;;;;26.23;30.47;101689.75;4955289;29;20537;-49
2022/04/18 03:07:40;;;;;;;0.88;0.77;;;;;;;26.19;30.34;101684.44;4954680;29;20115;-51
2022/04/18 03:10:08;;;;;;;0.50;0.40;;;;;;;26.15;30.32;101686.13;4954709;29;20035;-51
2022/04/18 03:12:37;;;;;;;1.48;0.73;;;;;;;26.17;30.29;101691.41;4954729;29;20389;-51
2022/04/18 03:15:07;;;;;;;2.63;0.82;;;;;;;26.15;30.24;101683.50;4954601;29;20073;-53
2022/04/18 03:17:36;;;;;;;1.38;0.90;;;;;;;26.14;30.14;101692.28;4954739;29;20039;-51
2022/04/18 03:20:05;;;;;;;0.95;0.70;;;;;;;26.14;30.25;101688.75;4954504;29;20392;-49
2022/04/18 03:22:33;;;;;;;1.17;0.75;;;;;;;26.13;30.20;101685.25;4954708;29;20090;-50
2022/04/18 03:25:02;;;;;;;2.47;0.82;;;;;;;26.11;30.35;101684.34;4954517;29;20031;-52
2022/04/18 03:27:31;;;;;;;1.20;0.70;;;;;;;26.13;30.43;101681.72;4954479;29;20470;-49
2022/04/18 03:30:00;;;;;;;2.10;1.00;;;;;;;26.10;30.30;101687.78;4954632;29;20024;-52
2022/04/18 03:32:28;;;;;;;1.25;0.80;;;;;;;26.09;30.29;101678.13;4954620;28;20027;-45
2022/04/18 03:34:56;;;;;;;2.10;0.70;;;;;;;26.09;30.11;101681.63;4957911;29;20580;-53
2022/04/18 03:40:13;;;;;;;1.70;0.88;;;;;;;26.06;30.11;101688.59;4954674;29;20139;-49
2022/04/18 03:42:42;;;;;;;1.52;0.90;;;;;;;26.11;29.74;101684.34;4958160;29;20028;-48
2022/04/18 03:45:11;;;;;;;1.88;0.90;;;;;;;26.09;29.82;101689.50;4958511;29;20031;-49
2022/04/18 03:47:40;;;;;;;1.50;0.85;;;;;;;26.04;30.19;101687.69;4957448;29;20129;-48
2022/04/18 03:50:09;;;;;;;1.08;0.65;;;;;;;26.01;30.22;101682.38;4957612;29;20083;-45
2022/04/18 03:52:37;;;;;;;1.55;0.95;;;;;;;25.98;30.21;101688.47;4957585;29;20033;-52
2022/04/18 03:55:06;;;;;;;1.40;0.95;;;;;;;26.03;30.18;101693.78;4957708;29;20024;-53
2022/04/18 03:57:35;;;;;;;1.10;0.73;;;;;;;26.02;30.39;101686.75;4940755;29;20114;-52
2022/04/18 04:00:03;;;;;;;1.55;0.75;;;;;;;26.00;30.31;101689.38;4957484;29;20524;-51
2022/04/18 04:02:33;;;;;;;0.95;0.57;;;;;;;25.97;30.50;101689.31;4958067;29;20035;-51
2022/04/18 04:05:02;;;;;;;1.13;0.70;;;;;;;26.04;30.28;101699.09;4957513;29;20023;-49
2022/04/18 04:07:30;;;;;;;1.33;0.80;;;;;;;26.04;30.35;101696.47;4957621;29;20078;-52
2022/04/18 04:09:59;;;;;;;2.47;0.85;;;;;;;26.01;30.09;101685.91;4957523;29;20023;-50
2022/04/18 04:12:28;;;;;;;0.85;0.50;;;;;;;26.00;30.46;101688.47;4957600;29;20035;-51
2022/04/18 04:14:57;;;;;;;2.15;1.00;;;;;;;26.02;30.25;101681.50;4957672;29;20031;-51
2022/04/18 04:17:26;;;;;;;0.90;0.60;;;;;;;26.03;30.35;101683.28;4957499;29;20033;-52
2022/04/18 04:19:57;;;;;;;1.10;0.60;;;;;;;26.04;30.16;101685.03;4957415;29;20023;-48
2022/04/18 04:22:25;;;;;;;2.78;1.00;;;;;;;26.03;30.11;101686.81;4957440;29;20031;-46
2022/04/18 04:24:54;;;;;;;1.65;0.70;;;;;;;26.06;30.17;101686.84;4957274;29;20086;-50
2022/04/18 04:27:22;;;;;;;1.25;0.70;;;;;;;26.07;30.10;101682.47;4957812;29;20031;-50
2022/04/18 04:29:51;;;;;;;0.73;0.63;;;;;;;26.05;30.14;101684.19;4957469;29;20104;-50
2022/04/18 04:32:20;;;;;;;1.30;0.60;;;;;;;26.01;29.93;101672.75;4940326;29;20035;-52
2022/04/18 04:34:49;;;;;;;1.98;0.50;;;;;;;26.00;29.96;101684.13;4957116;29;20043;-50
2022/04/18 04:37:17;;;;;;;0.90;0.70;;;;;;;25.96;30.25;101681.44;4940094;29;20030;-50
2022/04/18 04:39:46;;;;;;;1.02;0.68;;;;;;;25.93;30.64;101688.41;4957167;29;20027;-51
2022/04/18 04:42:15;;;;;;;0.85;0.65;;;;;;;25.94;30.48;101682.28;4939735;29;20027;-47
2022/04/18 04:44:43;;;;;;;1.13;0.60;;;;;;;25.96;30.19;101681.44;4939150;29;20034;-47
2022/04/18 04:47:12;;;;;;;1.25;0.60;;;;;;;25.92;30.10;101686.63;4956976;29;20118;-50
2022/04/18 04:49:40;;;;;;;1.10;0.70;;;;;;;25.88;30.28;101678.69;4939810;29;20477;-50
2022/04/18 04:52:09;;;;;;;1.15;0.60;;;;;;;25.91;30.44;101681.34;4956871;29;20062;-50
2022/04/18 04:54:38;;;;;;;2.10;0.85;;;;;;;25.90;30.46;101690.97;4956906;29;20030;-47
2022/04/18 04:57:06;;;;;;;1.13;0.60;;;;;;;25.90;30.26;101685.72;4956609;29;20031;-47
2022/04/18 04:59:34;;;;;;;0.93;0.70;;;;;;;25.86;30.19;101686.53;4939909;29;20488;-46
2022/04/18 05:02:03;;;;;;;0.80;0.60;;;;;;;25.86;30.34;101685.66;4956320;29;20035;-50
2022/04/18 05:04:31;;;;;;;0.70;0.70;;;;;;;25.84;30.22;101696.13;4939805;29;20381;-50
2022/04/18 05:07:00;;;;;;;2.08;1.00;;;;;;;25.87;30.22;101692.69;4956288;29;20027;-48
2022/04/18 05:09:28;;;;;;;1.45;0.73;;;;;;;25.84;30.27;101692.63;4956555;29;20027;-51
2022/04/18 05:11:57;;;;;;;1.50;0.60;;;;;;;25.83;30.07;101702.22;4956977;29;20485;-48
2022/04/18 05:14:26;;;;;;;1.10;0.68;;;;;;;25.85;30.06;101694.41;4956677;29;20467;-53
2022/04/18 05:16:54;;;;;;;2.47;0.73;;;;;;;25.87;30.37;101693.53;4956454;29;20027;-51
2022/04/18 05:19:23;;;;;;;1.15;0.90;;;;;;;25.83;30.09;101696.97;4956109;29;20058;-47
2022/04/18 05:21:52;;;;;;;1.33;0.80;;;;;;;25.87;30.28;101701.44;4956632;29;20477;-52
2022/04/18 05:24:20;;;;;;;1.45;0.90;;;;;;;25.90;30.25;101704.13;4956137;29;20035;-48
2022/04/18 05:26:49;;;;;;;2.47;0.73;;;;;;;25.90;29.84;101704.13;4955689;29;20038;-50
2022/04/18 05:29:18;;;;;;;3.10;0.70;;;;;;;25.85;30.17;101703.16;4956466;29;20038;-49
2022/04/18 05:31:47;;;;;;;1.38;0.73;;;;;;;25.84;30.25;101709.25;4956061;29;20031;-49
2022/04/18 05:34:15;;;;;;;0.95;0.68;;;;;;;25.81;30.05;101709.25;4955163;29;20047;-50
2022/04/18 05:36:44;;;;;;;0.80;0.50;;;;;;;25.92;29.91;101705.03;4955782;29;20027;-52
2022/04/18 05:39:12;;;;;;;2.95;0.65;;;;;;;25.97;30.09;101717.38;4956340;29;20038;-47
2022/04/18 05:41:41;;;;;;;1.75;0.70;;;;;;;25.92;30.22;101718.19;4956023;29;20035;-51
2022/04/18 05:44:10;;;;;;;1.58;0.77;;;;;;;25.94;30.07;101720.81;4938653;29;20076;-48
2022/04/18 05:46:39;;;;;;;1.00;0.70;;;;;;;25.90;30.16;101719.00;4955646;29;20024;-48
2022/04/18 05:49:08;;;;;;;1.42;0.60;;;;;;;25.96;30.00;101707.72;4955656;29;20027;-48
2022/04/18 05:51:38;;;;;;;0.70;0.68;;;;;;;26.03;30.02;101720.09;4955566;29;20497;-48
2022/04/18 05:54:07;;;;;;;1.52;0.82;;;;;;;26.05;29.77;101724.53;4955754;29;20039;-51
2022/04/18 05:56:35;;;;;;;1.15;0.50;;;;;;;26.07;29.95;101727.16;4955296;28;20027;-46
2022/04/18 05:59:03;;;;;;;1.00;0.63;;;;;;;26.08;30.01;101734.19;4922729;29;20039;-49
2022/04/18 06:01:31;;;;;;;0.93;0.70;;;;;;;26.04;29.72;101735.91;4955638;29;20500;-50
2022/04/18 06:03:59;;;;;;;1.30;0.73;;;;;;;25.93;30.19;101733.09;4955425;29;20036;-46
2022/04/18 06:06:28;;;;;;;4.35;0.70;;;;;;;26.01;29.93;101732.31;4938641;29;20031;-49
2022/04/18 06:08:57;;;;;;;4.03;1.20;;;;;;;26.02;29.99;101737.63;4955476;29;20127;-51
2022/04/18 06:11:25;;;;;;;1.63;0.60;;;;;;;26.03;29.68;101739.41;4955156;29;20559;-51
2022/04/18 06:13:54;;;;;;;2.30;0.75;;;;;;;26.09;29.66;101735.97;4955385;29;20366;-50
2022/04/18 06:16:22;;;;;;;4.68;1.40;;;;;;;26.16;30.05;101729.97;4955363;29;20035;-51
2022/04/18 06:18:51;;;;;;;1.00;0.52;;;;;;;26.23;29.97;101739.72;4955298;29;20061;-51
2022/04/18 06:21:19;;;;;;;1.35;0.63;;;;;;;26.15;30.06;101740.47;4955242;29;20019;-50
2022/04/18 06:23:47;;;;;;;1.63;0.80;;;;;;;26.20;30.18;101746.69;4955270;29;20544;-50
2022/04/18 06:26:15;;;;;;;1.85;0.82;;;;;;;26.20;29.93;101736.19;4937858;29;20349;-51
2022/04/18 06:28:44;;;;;;;5.05;0.90;;;;;;;26.27;29.72;101739.78;4955081;29;20038;-52
2022/04/18 06:31:12;;;;;;;1.75;0.80;;;;;;;26.19;30.28;101737.03;4955078;29;20038;-51
2022/04/18 06:33:40;;;;;;;1.65;0.60;;;;;;;26.21;30.23;101737.94;4955069;29;20094;-51
2022/04/18 06:36:09;;;;;;;1.20;0.43;;;;;;;26.19;30.33;101747.56;4954987;29;20523;-48
2022/04/18 06:38:37;;;;;;;3.42;0.85;;;;;;;26.19;30.31;101742.31;4955343;29;20023;-48
2022/04/18 06:41:06;;;;;;;2.10;0.80;;;;;;;26.19;30.49;101751.06;4937971;29;20115;-46
2022/04/18 06:43:34;;;;;;;2.22;0.70;;;;;;;26.24;30.32;101746.75;4955355;29;20536;-50
2022/04/18 06:46:03;;;;;;;1.20;0.75;;;;;;;26.29;30.52;101745.97;4955317;29;20044;-48
2022/04/18 06:48:31;;;;;;;2.65;1.10;;;;;;;26.29;30.68;101745.97;4955157;29;20098;-47
2022/04/18 06:51:00;;;;;;;2.38;0.68;;;;;;;26.30;30.87;101742.47;4955351;29;20111;-49
2022/04/18 06:53:29;;;;;;;1.77;0.60;;;;;;;26.26;30.90;101743.28;4955045;29;20106;-50
2022/04/18 06:58:45;;;;;;;1.60;0.60;;;;;;;26.35;30.87;101752.19;4948983;29;20392;-46
2022/04/18 07:01:13;;;;;;;3.53;0.88;;;;;;;26.37;30.85;101754.84;4954790;29;20114;-46
2022/04/18 07:03:42;;;;;;;4.05;1.05;;;;;;;26.33;31.04;101738.13;4954823;29;20473;-49
2022/04/18 07:06:11;;;;;;;0.90;0.50;;;;;;;26.38;31.05;101748.72;4954347;29;20035;-51
2022/04/18 07:08:39;;;;;;;2.83;0.50;;;;;;;26.44;30.80;101747.91;4957112;28;20031;-50
2022/04/18 07:11:08;;;;;;;3.13;0.93;;;;;;;26.45;31.10;101754.94;4958662;29;20469;-48
2022/04/18 07:13:35;;;;;;;1.38;0.85;;;;;;;26.48;30.89;101744.47;4941356;29;20042;-47
2022/04/18 07:16:04;;;;;;;2.40;0.98;;;;;;;26.50;31.07;101748.03;4958807;29;20038;-50
2022/04/18 07:18:32;;;;;;;3.45;0.88;;;;;;;26.53;31.16;101743.69;4958381;29;20485;-48
2022/04/18 07:21:01;;;;;;;2.65;1.17;;;;;;;26.54;31.32;101740.19;4958226;29;20035;-53
2022/04/18 07:23:28;;;;;;;0.95;0.60;;;;;;;26.58;31.09;101734.97;4958572;29;20023;-51
2022/04/18 07:25:56;;;;;;;3.40;1.17;;;;;;;26.60;30.99;101733.25;4940960;29;20027;-48
2022/04/18 07:28:25;;;;;;;4.43;0.82;;;;;;;26.62;31.15;101740.31;4958209;29;20038;-45
2022/04/18 07:30:53;;;;;;;2.80;1.08;;;;;;;26.63;31.36;101738.56;4958212;29;20027;-47
2022/04/18 07:33:22;;;;;;;5.32;0.88;;;;;;;26.66;31.29;101733.31;4958413;29;20024;-46
2022/04/18 07:35:51;;;;;;;2.83;0.70;;;;;;;26.75;31.38;101735.19;4958003;29;20047;-45
2022/04/18 07:39:01;;;;;;;5.05;1.05;;;;;;;26.74;31.36;101729.06;4958008;29;20038;-47
2022/04/18 07:41:07;;;;;;;6.40;1.52;;;;;;;26.77;31.57;101726.47;4951923;29;20050;-50
2022/04/18 07:43:36;;;;;;;1.55;0.63;;;;;;;26.83;31.41;101725.69;4958159;29;20034;-49
2022/04/18 07:46:05;;;;;;;2.45;0.60;;;;;;;26.85;31.18;101723.97;4957762;29;20031;-52
2022/04/18 07:48:33;;;;;;;3.10;0.68;;;;;;;26.92;31.13;101732.84;4958049;29;20062;-50
2022/04/18 07:51:42;;;;;;;2.10;0.75;;;;;;;26.93;31.38;101734.59;4957717;29;20032;-48
2022/04/18 07:53:49;;;;;;;3.80;1.23;;;;;;;26.96;31.44;101738.16;4943192;29;20075;-51
2022/04/18 07:56:17;;;;;;;3.85;0.90;;;;;;;27.00;31.21;101728.53;4957184;29;20066;-52
2022/04/18 07:58:46;;;;;;;2.22;0.90;;;;;;;27.02;31.39;101739.97;4957714;29;20019;-49
2022/04/18 08:01:15;;;;;;;2.28;0.80;;;;;;;27.04;31.49;101735.63;4940537;29;20456;-52
2022/04/18 08:03:43;;;;;;;2.28;0.63;;;;;;;27.10;31.26;101733.06;4957552;29;20031;-52
2022/04/18 08:06:12;;;;;;;2.42;0.73;;;;;;;27.13;31.36;101733.09;4957824;29;20174;-54
2022/04/18 08:08:40;;;;;;;2.25;1.10;;;;;;;27.15;31.41;101728.72;4957984;29;20026;-51
2022/04/18 08:11:11;;;;;;;2.20;1.10;;;;;;;27.17;31.54;101720.84;4957600;29;20397;-52
2022/04/18 08:13:41;;;;;;;4.05;1.02;;;;;;;27.23;31.39;101726.16;4957513;29;20028;-49
2022/04/18 08:16:09;;;;;;;3.63;0.95;;;;;;;27.25;31.28;101729.69;4957401;29;20023;-53
2022/04/18 08:18:39;;;;;;;2.45;0.73;;;;;;;27.28;31.28;101729.75;4957327;28;20034;-52
2022/04/18 08:21:08;;;;;;;2.83;0.88;;;;;;;27.34;31.34;101728.91;4956336;29;20477;-53
2022/04/18 08:23:37;;;;;;;2.63;0.88;;;;;;;27.39;31.22;101731.59;4940629;29;20031;-53
2022/04/18 08:26:06;;;;;;;3.53;0.90;;;;;;;27.39;31.24;101716.69;4957345;29;20102;-53
2022/04/18 08:28:34;;;;;;;4.85;1.10;;;;;;;27.44;31.25;101720.25;4957258;29;20484;-52
2022/04/18 08:31:03;;;;;;;4.55;0.98;;;;;;;27.46;31.18;101715.03;4957536;29;20031;-50
2022/04/18 08:33:31;;;;;;;2.53;0.95;;;;;;;27.48;31.24;101715.03;4956846;29;20375;-49
2022/04/18 08:36:02;;;;;;;3.80;0.95;;;;;;;27.52;31.19;101715.09;4956838;29;20051;-53
2022/04/18 08:38:30;;;;;;;2.40;0.95;;;;;;;27.58;31.20;101719.53;4957061;29;20027;-51
2022/04/18 08:41:01;;;;;;;2.78;0.82;;;;;;;27.60;30.97;101725.72;4957031;29;20031;-50
2022/04/18 08:43:30;;;;;;;3.40;0.82;;;;;;;27.64;31.12;101722.22;4957176;29;20481;-51
2022/04/18 08:45:59;;;;;;;2.90;0.90;;;;;;;27.68;31.21;101723.16;4956946;29;20045;-52
2022/04/18 08:54:03;;;;;;;2.83;0.85;;;;;;;27.75;30.93;101728.50;4949739;29;20039;-49
2022/04/18 08:56:32;;;;;;;2.70;0.70;;;;;;;27.65;31.07;101705.53;4939792;29;20027;-53
2022/04/18 08:59:02;;;;;;;4.78;1.00;;;;;;;27.80;30.98;101725.88;4939837;29;20027;-49
2022/04/18 09:01:30;;;;;;;1.75;0.82;;;;;;;27.84;30.92;101719.78;4956602;29;20039;-45
2022/04/18 09:04:00;;;;;;;2.88;0.85;;;;;;;27.84;30.94;101724.16;4956808;29;20389;-51
2022/04/18 09:06:31;;;;;;;4.53;1.13;;;;;;;27.86;31.04;101722.41;4956804;29;20031;-49
2022/04/18 09:09:01;;;;;;;3.63;1.02;;;;;;;27.92;30.94;101725.13;4957232;29;20024;-50
2022/04/18 09:11:33;;;;;;;5.72;1.20;;;;;;;27.92;30.88;101717.22;4956799;29;20428;-51
2022/04/18 09:14:06;;;;;;;3.20;0.95;;;;;;;27.95;30.73;101722.50;4956922;29;20477;-47
2022/04/18 09:16:35;;;;;;;3.40;1.17;;;;;;;27.95;30.64;101725.16;4956438;29;20121;-51
2022/04/18 09:19:09;;;;;;;2.97;1.05;;;;;;;28.01;30.67;101722.53;4956344;29;20420;-48
2022/04/18 09:21:58;;;;;;;2.60;0.80;;;;;;;28.03;30.75;101720.81;4939158;29;20034;-50
2022/04/18 09:24:36;;;;;;;2.60;0.85;;;;;;;28.05;30.59;101723.44;4956662;29;20035;-50
2022/04/18 09:27:07;;;;;;;2.22;0.47;;;;;;;28.08;30.49;101720.84;4956529;29;20038;-50
2022/04/18 09:29:40;;;;;;;2.50;0.95;;;;;;;28.09;30.53;101721.72;4956303;29;20504;-47
2022/04/18 09:32:10;;;;;;;4.45;1.13;;;;;;;28.13;30.48;101720.94;4955588;28;20039;-49
2022/04/18 09:34:39;;;;;;;3.33;0.82;;;;;;;28.13;30.56;101726.19;4956235;29;20505;-46
2022/04/18 09:37:12;;;;;;;5.03;1.10;;;;;;;28.18;30.36;101708.63;4956298;29;20042;-46
2022/04/18 09:39:43;;;;;;;2.30;0.90;;;;;;;28.17;30.37;101709.50;4956343;29;20030;-47
2022/04/18 09:42:12;;;;;;;3.95;1.00;;;;;;;28.23;30.19;101706.00;4955896;29;20027;-49
2022/04/18 09:44:41;;;;;;;3.70;0.88;;;;;;;28.17;30.22;101691.03;4956679;29;20098;-49
2022/04/18 09:47:26;;;;;;;2.70;0.68;;;;;;;28.27;30.34;101707.81;4955768;29;20027;-50
2022/04/18 09:49:55;;;;;;;4.00;0.90;;;;;;;28.28;30.21;101702.56;4955938;29;20546;-44
2022/04/18 09:52:24;;;;;;;2.17;0.80;;;;;;;28.30;30.06;101700.78;4955644;29;20041;-55
2022/04/18 09:54:53;;;;;;;3.35;1.00;;;;;;;28.33;30.21;101692.03;4955442;29;20069;-51
2022/04/18 09:57:24;;;;;;;2.38;0.65;;;;;;;28.35;30.09;101696.44;4955774;29;20037;-48
2022/04/18 09:59:55;;;;;;;1.63;0.70;;;;;;;28.40;29.95;101700.84;4955784;29;20128;-47
2022/04/18 10:02:24;;;;;;;3.47;1.05;;;;;;;28.40;30.10;101692.94;4955100;29;20493;-50
2022/04/18 10:04:54;;;;;;;5.55;1.27;;;;;;;28.42;30.17;101696.47;4938499;29;20078;-47
2022/04/18 10:07:22;;;;;;;3.92;0.77;;;;;;;28.42;30.04;101691.19;4955504;29;20035;-49
2022/04/18 10:09:51;;;;;;;2.72;1.00;;;;;;;28.48;29.77;101691.22;4955280;29;20029;-52
2022/04/18 10:12:20;;;;;;;3.28;0.98;;;;;;;28.50;29.86;101686.81;4938922;29;20434;-48
2022/04/18 10:14:48;;;;;;;7.32;1.13;;;;;;;28.50;29.67;101698.28;4955082;29;20035;-45
2022/04/18 10:17:18;;;;;;;2.90;1.00;;;;;;;28.45;29.68;101678.88;4955262;29;20073;-50
2022/04/18 10:20:06;;;;;;;3.70;1.20;;;;;;;28.54;29.67;101690.38;4938424;29;20027;-53
2022/04/18 10:22:59;;;;;;;2.53;1.17;;;;;;;28.57;29.69;101691.28;4955148;29;20019;-46
2022/04/18 10:25:47;;;;;;;4.10;1.00;;;;;;;28.61;29.43;101687.78;4932940;29;20043;-52
2022/04/18 10:28:19;;;;;;;3.58;1.13;;;;;;;28.61;29.08;101693.06;4949335;29;20066;-53
2022/04/18 10:31:25;;;;;;;3.40;1.02;;;;;;;28.60;29.02;101686.03;4955190;29;20031;-50
2022/04/18 10:33:55;;;;;;;3.05;0.80;;;;;;;28.61;29.04;101684.25;4953897;29;20043;-49
2022/04/18 10:36:33;;;;;;;4.88;1.00;;;;;;;28.50;28.90;101673.63;4938097;29;20035;-51
2022/04/18 10:39:07;;;;;;;3.40;1.08;;;;;;;28.57;28.79;101685.09;4955357;29;20106;-47
2022/04/18 10:41:37;;;;;;;6.45;1.42;;;;;;;28.56;28.60;101683.34;4954763;29;20059;-49
2022/04/18 10:44:16;;;;;;;3.58;1.30;;;;;;;28.53;28.60;101688.63;4954526;29;20036;-52
2022/04/18 10:47:03;;;;;;;4.28;1.50;;;;;;;28.51;28.11;101680.69;4954513;29;20563;-49
2022/04/18 10:49:32;;;;;;;5.43;1.77;;;;;;;28.46;28.52;101682.44;4954776;29;20028;-48
2022/04/18 10:52:09;;;;;;;6.00;1.40;;;;;;;28.44;28.48;101678.91;4955063;29;20030;-49
2022/04/18 10:54:38;;;;;;;5.25;1.50;;;;;;;28.50;28.57;101678.91;4955052;29;20035;-48
2022/04/18 10:57:11;;;;;;;3.83;1.02;;;;;;;28.49;28.60;101674.50;4955125;29;20385;-47
2022/04/18 10:59:42;;;;;;;4.55;1.38;;;;;;;28.49;28.29;101674.50;4955334;29;20031;-54
2022/04/18 11:02:49;;;;;;;4.95;1.45;;;;;;;28.46;28.03;101669.25;4955004;29;20023;-51
2022/04/18 11:05:17;;;;;;;3.88;1.40;;;;;;;28.41;27.63;101674.47;4954634;29;20038;-49
2022/04/18 11:07:46;;;;;;;5.93;1.35;;;;;;;28.37;27.89;101669.16;4954947;29;20492;-50
2022/04/18 11:10:25;;;;;;;4.43;1.58;;;;;;;28.36;27.69;101665.66;4955029;29;20158;-50
2022/04/18 11:13:01;;;;;;;6.47;1.73;;;;;;;28.27;27.27;101663.84;4937972;29;20031;-48
2022/04/18 11:15:30;;;;;;;4.18;1.17;;;;;;;28.29;27.21;101672.66;4954946;29;20035;-51
2022/04/18 11:18:02;;;;;;;5.43;1.40;;;;;;;28.26;26.77;101667.38;4954369;29;20039;-51
2022/04/18 11:20:34;;;;;;;4.78;1.35;;;;;;;28.15;26.57;101664.66;4954903;29;20490;-47
2022/04/18 11:23:22;;;;;;;7.47;1.60;;;;;;;28.09;26.55;101669.84;4954624;29;20030;-52
2022/04/18 11:26:00;;;;;;;5.32;1.77;;;;;;;28.07;26.77;101665.44;4954285;29;20110;-49
2022/04/18 11:28:41;;;;;;;5.72;1.35;;;;;;;28.08;27.05;101669.84;4954787;29;20182;-51
2022/04/18 11:31:11;;;;;;;4.05;1.30;;;;;;;28.17;26.79;101660.28;4954947;29;20020;-50
2022/04/18 11:33:44;;;;;;;6.13;1.75;;;;;;;28.15;26.66;101658.47;4954396;29;20114;-54
2022/04/18 11:36:14;;;;;;;5.40;1.58;;;;;;;28.09;27.04;101661.06;4937437;29;20489;-52
2022/04/18 11:38:43;;;;;;;8.10;2.75;;;;;;;28.15;26.32;101664.66;4954851;29;20032;-52
2022/04/18 11:41:14;;;;;;;8.13;4.38;;;;;;;28.13;26.93;101662.91;4954455;29;20042;-50
2022/04/18 11:43:43;;;;;;;11.35;4.90;;;;;;;28.07;26.91;101668.94;4954726;29;20035;-48
2022/04/18 11:46:12;;;;;;;13.52;7.38;;;;;;;28.14;26.65;101669.91;4937654;29;20036;-48
2022/04/18 11:48:40;;;;;;;14.82;8.10;;;;;;;28.12;27.05;101672.53;4954149;29;20028;-47
2022/04/18 11:51:09;;;;;;;11.90;7.32;;;;;;;28.17;27.26;101664.66;4954585;29;20518;-47
2022/04/18 11:53:37;;;;;;;11.57;6.18;;;;;;;28.16;27.13;101668.16;4954931;28;20038;-47